Time;durP1;ratioP1;P1;durP2;ratioP2;P2;SDS_P1;SDS_P2;PMS_P1;PMS_P2;Temp;Humidity;BMP_temperature;BMP_pressure;BME280_temperature;BME280_humidity;BME280_pressure;Samples;Min_cycle;Max_cycle;Signal;HPM_P1;HPM_P2
2023/10/04 00:02:20;;;;;;;19.35;9.63;;;15.40;99.90;;;;;;5103933;29;20043;-81
2023/10/04 00:04:51;;;;;;;17.25;9.35;;;15.10;99.90;;;;;;5105136;29;20384;-82
2023/10/04 00:07:22;;;;;;;15.73;10.05;;;15.10;99.90;;;;;;5104948;29;20036;-80
2023/10/04 00:09:53;;;;;;;17.15;9.25;;;15.00;99.90;;;;;;5104127;29;20046;-78
2023/10/04 00:12:24;;;;;;;16.52;9.75;;;15.20;99.90;;;;;;5104625;29;20032;-81
2023/10/04 00:14:54;;;;;;;15.10;8.77;;;15.00;99.90;;;;;;5104946;29;20059;-80
2023/10/04 00:17:27;;;;;;;16.88;10.13;;;14.70;99.90;;;;;;5104565;29;20030;-79
2023/10/04 00:19:58;;;;;;;17.00;8.52;;;15.00;99.90;;;;;;5103551;29;20024;-78
2023/10/04 00:22:29;;;;;;;15.98;9.93;;;15.10;99.90;;;;;;5103535;29;20110;-77
2023/10/04 00:25:04;;;;;;;15.98;8.95;;;14.80;99.90;;;;;;5103686;29;20122;-74
2023/10/04 00:27:35;;;;;;;15.00;9.15;;;14.70;99.90;;;;;;5104867;29;20019;-80
2023/10/04 00:30:07;;;;;;;15.13;9.85;;;14.60;99.90;;;;;;5104391;29;20040;-79
2023/10/04 00:32:39;;;;;;;16.52;10.07;;;14.70;99.90;;;;;;5103337;29;20024;-75
2023/10/04 00:35:15;;;;;;;17.25;10.07;;;14.50;99.90;;;;;;5103676;29;20036;-75
2023/10/04 00:37:51;;;;;;;19.55;9.57;;;14.30;99.90;;;;;;5103683;29;20051;-80
2023/10/04 00:40:32;;;;;;;16.02;9.50;;;14.30;99.90;;;;;;5103691;29;20515;-80
2023/10/04 00:43:03;;;;;;;14.93;9.30;;;14.20;99.90;;;;;;5103574;29;20059;-80
2023/10/04 00:45:34;;;;;;;17.38;9.60;;;14.20;99.90;;;;;;5103698;29;20032;-79
2023/10/04 00:48:15;;;;;;;18.00;9.90;;;14.20;99.90;;;;;;5103761;29;20032;-80
2023/10/04 00:50:47;;;;;;;14.10;9.07;;;14.20;99.90;;;;;;5103344;29;20081;-79
2023/10/04 00:53:22;;;;;;;17.50;10.85;;;14.30;99.90;;;;;;5103743;29;20039;-78
2023/10/04 00:55:54;;;;;;;17.67;9.52;;;14.40;99.90;;;;;;5104830;29;20046;-80
2023/10/04 00:58:28;;;;;;;13.40;8.85;;;14.30;99.90;;;;;;5104872;29;20024;-76
2023/10/04 01:00:58;;;;;;;16.42;9.68;;;14.20;99.90;;;;;;5104772;29;20106;-78
2023/10/04 01:03:34;;;;;;;16.75;8.43;;;14.20;99.90;;;;;;5107954;29;20540;-76
2023/10/04 01:06:05;;;;;;;14.18;9.38;;;14.20;99.90;;;;;;5107657;29;20114;-80
2023/10/04 01:08:37;;;;;;;13.52;9.32;;;14.10;99.90;;;;;;5107351;29;20054;-80
2023/10/04 01:11:08;;;;;;;14.77;9.75;;;14.10;99.90;;;;;;5107337;29;20642;-80
2023/10/04 01:13:40;;;;;;;13.98;8.70;;;14.10;99.90;;;;;;5108341;29;20048;-78
2023/10/04 01:16:11;;;;;;;17.25;9.20;;;14.20;99.90;;;;;;5108766;29;20028;-76
2023/10/04 01:18:44;;;;;;;17.08;9.32;;;14.20;99.90;;;;;;5108144;29;20023;-82
2023/10/04 01:21:17;;;;;;;18.88;9.68;;;14.00;99.90;;;;;;5108532;29;20463;-83
2023/10/04 01:23:47;;;;;;;14.52;9.85;;;14.00;99.90;;;;;;5108388;29;20031;-82
2023/10/04 01:26:25;;;;;;;14.18;9.13;;;14.10;99.90;;;;;;5107910;29;20619;-80
2023/10/04 01:28:56;;;;;;;17.45;10.15;;;14.10;99.90;;;;;;5107937;29;20031;-82
2023/10/04 01:31:27;;;;;;;15.10;9.50;;;14.20;99.90;;;;;;5106790;29;20188;-83
2023/10/04 01:33:58;;;;;;;15.02;9.13;;;13.90;99.90;;;;;;5106712;29;20480;-78
2023/10/04 01:36:32;;;;;;;15.27;9.18;;;14.00;99.90;;;;;;5105483;29;20131;-82
2023/10/04 01:39:07;;;;;;;12.98;8.70;;;14.10;99.90;;;;;;5106822;29;20032;-83
2023/10/04 01:41:38;;;;;;;17.20;9.05;;;14.20;99.90;;;;;;5105113;29;20480;-81
2023/10/04 01:44:10;;;;;;;20.08;9.73;;;14.10;99.90;;;;;;5105609;29;20032;-84
2023/10/04 01:46:41;;;;;;;14.80;9.07;;;14.10;99.90;;;;;;5107841;29;20028;-81
2023/10/04 01:49:12;;;;;;;14.80;9.25;;;13.70;99.90;;;;;;5107598;29;20035;-79
2023/10/04 01:51:42;;;;;;;18.17;9.57;;;13.90;99.90;;;;;;5107654;29;20180;-84
2023/10/04 01:54:15;;;;;;;15.93;9.85;;;13.80;99.90;;;;;;5107476;29;20107;-78
2023/10/04 01:56:46;;;;;;;14.80;9.13;;;14.00;99.90;;;;;;5107721;29;20032;-82
2023/10/04 01:59:17;;;;;;;20.92;10.00;;;13.90;99.90;;;;;;5107640;29;20027;-85
2023/10/04 02:01:48;;;;;;;15.27;9.52;;;14.00;99.90;;;;;;5107678;29;20110;-85
2023/10/04 02:04:19;;;;;;;14.00;9.25;;;13.90;99.90;;;;;;5106176;29;20031;-77
2023/10/04 02:06:49;;;;;;;16.65;9.27;;;13.90;99.90;;;;;;5107317;29;20503;-85
2023/10/04 02:09:20;;;;;;;15.80;10.07;;;13.90;99.90;;;;;;5107312;29;20128;-81
2023/10/04 02:11:51;;;;;;;17.27;9.90;;;13.90;99.90;;;;;;5107292;29;20043;-82
2023/10/04 02:14:22;;;;;;;13.02;8.80;;;13.80;99.90;;;;;;5106601;29;20575;-86
2023/10/04 02:16:53;;;;;;;15.82;9.80;;;13.80;99.90;;;;;;5107371;29;20391;-83
2023/10/04 02:19:24;;;;;;;16.65;9.43;;;13.70;99.90;;;;;;5107097;29;20052;-82
2023/10/04 02:21:55;;;;;;;13.05;9.00;;;13.80;99.90;;;;;;5104808;29;20610;-85
2023/10/04 02:24:26;;;;;;;17.67;8.90;;;13.70;99.90;;;;;;5106781;29;20369;-82
2023/10/04 02:26:56;;;;;;;13.52;8.85;;;13.70;99.90;;;;;;5105785;29;20035;-83
2023/10/04 02:29:27;;;;;;;15.95;9.82;;;13.70;99.90;;;;;;5105758;29;20104;-84
2023/10/04 02:31:58;;;;;;;17.67;9.32;;;13.60;99.90;;;;;;5104148;29;20040;-83
2023/10/04 02:34:29;;;;;;;16.75;9.70;;;13.60;99.90;;;;;;5104465;29;20028;-82
2023/10/04 02:39:40;;;;;;;15.48;8.52;;;13.50;99.90;;;;;;5227730;23;20092;-78
2023/10/04 02:42:12;;;;;;;15.20;8.85;;;13.50;99.90;;;;;;5099203;29;20114;-80
2023/10/04 02:44:42;;;;;;;15.60;9.18;;;13.60;99.90;;;;;;5104888;29;20380;-84
2023/10/04 02:47:13;;;;;;;15.93;8.82;;;13.60;99.90;;;;;;5086639;29;20039;-73
2023/10/04 02:49:44;;;;;;;14.23;8.50;;;13.60;99.90;;;;;;5102651;29;20038;-81
2023/10/04 02:52:15;;;;;;;14.48;8.68;;;13.40;99.90;;;;;;5089922;29;20496;-82
2023/10/04 02:54:47;;;;;;;16.85;9.93;;;13.40;99.90;;;;;;5093934;29;20058;-82
2023/10/04 02:57:18;;;;;;;13.77;9.57;;;13.60;99.90;;;;;;5086691;29;20472;-78
2023/10/04 02:59:48;;;;;;;15.65;9.25;;;13.60;99.90;;;;;;5067010;29;20112;-73
2023/10/04 03:02:19;;;;;;;17.13;10.00;;;13.60;99.90;;;;;;5072560;29;20469;-78
2023/10/04 03:04:51;;;;;;;15.85;9.43;;;13.70;99.90;;;;;;5096947;29;20021;-80
2023/10/04 03:07:22;;;;;;;14.70;9.90;;;13.50;99.90;;;;;;5086497;29;20032;-81
2023/10/04 03:09:54;;;;;;;17.40;9.27;;;13.50;99.90;;;;;;5086746;29;20040;-81
2023/10/04 03:12:25;;;;;;;15.95;10.07;;;13.30;99.90;;;;;;5086378;29;20039;-74
2023/10/04 03:14:56;;;;;;;17.10;10.05;;;13.40;99.90;;;;;;5086462;29;20377;-81
2023/10/04 03:17:27;;;;;;;15.68;10.40;;;13.30;99.90;;;;;;5085548;29;20087;-80
2023/10/04 03:19:58;;;;;;;13.52;10.85;;;13.40;99.90;;;;;;5085850;29;20508;-81
2023/10/04 03:22:29;;;;;;;15.00;9.57;;;13.30;99.90;;;;;;5084683;29;20064;-81
2023/10/04 03:25:10;;;;;;;18.48;9.73;;;13.20;99.90;;;;;;5084969;29;20043;-80
2023/10/04 03:27:44;;;;;;;15.75;9.35;;;13.10;99.90;;;;;;5085046;29;20020;-81
2023/10/04 03:30:16;;;;;;;16.45;10.90;;;13.10;99.90;;;;;;5084727;29;20361;-81
2023/10/04 03:32:52;;;;;;;22.83;11.45;;;13.00;99.90;;;;;;5084815;29;20484;-79
2023/10/04 03:35:26;;;;;;;21.70;11.38;;;13.20;99.90;;;;;;5085138;29;20106;-81
2023/10/04 03:38:01;;;;;;;16.38;12.13;;;13.30;99.90;;;;;;5085542;29;20036;-80
2023/10/04 03:40:36;;;;;;;17.42;10.23;;;13.10;99.90;;;;;;5085952;29;20047;-79
2023/10/04 03:43:08;;;;;;;16.10;10.60;;;13.20;99.90;;;;;;5086113;29;20032;-82
2023/10/04 03:45:40;;;;;;;15.70;10.30;;;13.00;99.90;;;;;;5084700;29;20467;-81
2023/10/04 03:48:17;;;;;;;16.38;10.30;;;13.10;99.90;;;;;;5085846;29;20537;-82
2023/10/04 03:50:50;;;;;;;14.30;10.65;;;13.10;99.90;;;;;;5084306;29;20135;-83
2023/10/04 03:53:21;;;;;;;15.77;10.63;;;13.10;99.90;;;;;;5085554;29;20083;-81
2023/10/04 03:55:51;;;;;;;15.93;10.10;;;13.10;99.90;;;;;;5085674;29;20032;-82
2023/10/04 03:58:22;;;;;;;14.05;9.85;;;13.20;99.90;;;;;;5085629;29;20024;-81
2023/10/04 04:00:53;;;;;;;14.60;9.40;;;13.20;99.90;;;;;;5084344;29;20028;-83
2023/10/04 04:03:24;;;;;;;16.48;9.98;;;13.10;99.90;;;;;;5085722;29;20044;-74
2023/10/04 04:05:55;;;;;;;14.85;10.45;;;13.10;99.90;;;;;;5085595;29;20103;-83
2023/10/04 04:08:26;;;;;;;16.85;8.65;;;13.20;99.90;;;;;;5085218;29;20119;-83
2023/10/04 04:10:57;;;;;;;16.13;9.20;;;13.40;99.90;;;;;;5085420;29;20044;-84
2023/10/04 04:13:28;;;;;;;17.35;11.05;;;13.40;99.90;;;;;;5085082;29;20030;-82
2023/10/04 04:15:59;;;;;;;19.80;10.27;;;13.00;99.90;;;;;;5084666;29;20064;-82
2023/10/04 04:18:30;;;;;;;18.52;12.73;;;13.00;99.90;;;;;;5084199;29;20039;-81
2023/10/04 04:21:01;;;;;;;16.17;11.05;;;13.00;99.90;;;;;;5082743;29;20515;-82
2023/10/04 04:23:32;;;;;;;17.65;10.45;;;13.10;99.90;;;;;;5083988;29;20032;-81
2023/10/04 04:26:07;;;;;;;17.33;12.18;;;13.40;99.90;;;;;;5083989;29;20051;-85
2023/10/04 04:28:38;;;;;;;17.02;10.20;;;13.20;99.90;;;;;;5084103;29;20024;-84
2023/10/04 04:31:14;;;;;;;14.13;9.55;;;13.40;99.90;;;;;;5083207;29;20039;-74
2023/10/04 04:33:45;;;;;;;13.40;9.50;;;13.30;99.90;;;;;;5083824;29;20114;-82
2023/10/04 04:36:25;;;;;;;15.80;11.30;;;13.30;99.90;;;;;;5085032;29;20144;-83
2023/10/04 04:38:56;;;;;;;13.63;10.05;;;13.30;99.90;;;;;;5084817;29;20139;-83
2023/10/04 04:41:29;;;;;;;14.85;10.38;;;13.40;99.90;;;;;;5085111;29;20115;-84
2023/10/04 04:44:19;;;;;;;12.27;10.13;;;13.30;99.90;;;;;;5085238;29;20104;-84
2023/10/04 04:46:51;;;;;;;15.68;10.32;;;13.30;99.90;;;;;;5085553;29;20024;-80
2023/10/04 04:49:22;;;;;;;15.88;11.70;;;13.40;99.90;;;;;;5085254;29;20032;-75
2023/10/04 04:51:53;;;;;;;16.90;12.05;;;13.50;99.90;;;;;;5085064;29;20392;-80
2023/10/04 04:54:23;;;;;;;16.92;11.43;;;13.40;99.90;;;;;;5084813;29;20032;-81
2023/10/04 04:56:54;;;;;;;22.13;11.90;;;13.60;99.90;;;;;;5084921;29;20466;-78
2023/10/04 04:59:25;;;;;;;14.95;11.43;;;13.60;99.90;;;;;;5084837;29;20064;-80
2023/10/04 05:01:56;;;;;;;16.45;11.05;;;13.70;99.90;;;;;;5084721;29;20043;-79
2023/10/04 05:04:27;;;;;;;16.30;11.80;;;13.90;99.90;;;;;;5084931;29;20032;-80
2023/10/04 05:06:58;;;;;;;17.25;12.18;;;13.70;99.90;;;;;;5084411;29;20036;-80
2023/10/04 05:09:29;;;;;;;16.45;10.77;;;13.80;99.90;;;;;;5083730;29;20375;-74
2023/10/04 05:11:59;;;;;;;16.30;10.90;;;14.00;99.90;;;;;;5082681;29;20070;-78
2023/10/04 05:14:31;;;;;;;13.65;9.50;;;14.10;99.90;;;;;;5083640;29;20610;-81
2023/10/04 05:17:02;;;;;;;15.52;9.88;;;14.10;99.90;;;;;;5082458;29;20095;-81
2023/10/04 05:19:33;;;;;;;21.40;10.32;;;14.10;99.90;;;;;;5082308;29;20028;-81
2023/10/04 05:22:05;;;;;;;17.13;10.35;;;14.20;99.90;;;;;;5083688;29;20457;-80
2023/10/04 05:24:36;;;;;;;15.73;9.95;;;14.30;99.90;;;;;;5083625;29;20062;-81
2023/10/04 05:27:07;;;;;;;17.17;9.75;;;14.40;99.90;;;;;;5084153;29;20028;-82
2023/10/04 05:29:38;;;;;;;14.05;9.80;;;14.50;99.90;;;;;;5084631;29;20032;-82
2023/10/04 05:32:09;;;;;;;15.90;10.35;;;14.50;99.90;;;;;;5084804;29;20040;-80
2023/10/04 05:34:40;;;;;;;21.75;10.38;;;14.40;99.90;;;;;;5084878;29;20024;-75
2023/10/04 05:37:10;;;;;;;15.75;10.73;;;14.60;99.90;;;;;;5084191;29;20087;-82
2023/10/04 05:39:43;;;;;;;17.80;10.77;;;14.70;99.90;;;;;;5084283;29;20044;-86
2023/10/04 05:42:14;;;;;;;15.73;10.20;;;14.60;99.90;;;;;;5084531;29;20032;-85
2023/10/04 05:44:45;;;;;;;15.52;10.35;;;14.70;99.90;;;;;;5084285;29;20017;-86
2023/10/04 05:47:17;;;;;;;15.50;10.27;;;14.70;99.90;;;;;;5082778;29;20107;-83
2023/10/04 05:49:48;;;;;;;18.20;10.43;;;14.80;99.90;;;;;;5084324;29;20032;-84
2023/10/04 05:52:22;;;;;;;16.30;10.55;;;15.00;99.90;;;;;;5087375;29;20024;-81
2023/10/04 05:54:54;;;;;;;16.83;11.15;;;15.00;99.90;;;;;;5087349;29;20063;-82
2023/10/04 05:57:24;;;;;;;18.58;10.80;;;15.20;99.90;;;;;;5086240;29;20032;-81
2023/10/04 05:59:55;;;;;;;22.77;11.80;;;15.30;99.90;;;;;;5087309;29;20665;-81
2023/10/04 06:02:27;;;;;;;19.60;11.43;;;15.40;99.90;;;;;;5087234;29;20026;-75
2023/10/04 06:05:02;;;;;;;14.98;10.73;;;15.50;99.90;;;;;;5086591;29;20028;-79
2023/10/04 06:07:33;;;;;;;19.75;11.00;;;15.50;99.90;;;;;;5073344;29;20152;-75
2023/10/04 06:10:04;;;;;;;17.00;10.98;;;15.80;99.90;;;;;;5073563;29;20127;-83
2023/10/04 06:12:36;;;;;;;19.65;11.00;;;15.90;99.90;;;;;;5069212;29;20040;-81
2023/10/04 06:15:10;;;;;;;17.20;9.43;;;16.00;99.90;;;;;;5049080;29;20382;-76
2023/10/04 06:17:42;;;;;;;16.13;10.15;;;16.20;99.90;;;;;;5064898;29;20155;-77
2023/10/04 06:22:57;;;;;;;20.50;10.40;;;16.20;99.90;;;;;;5066886;29;20491;-78
2023/10/04 06:25:29;;;;;;;25.45;11.15;;;16.30;99.90;;;;;;5051027;29;20039;-77
2023/10/04 06:28:03;;;;;;;15.80;10.07;;;16.30;99.90;;;;;;5066771;29;20138;-80
2023/10/04 06:30:34;;;;;;;15.38;10.02;;;16.50;99.90;;;;;;5066032;29;20041;-81
2023/10/04 06:33:09;;;;;;;15.82;9.48;;;16.70;99.90;;;;;;5066183;29;20037;-80
2023/10/04 06:35:43;;;;;;;15.25;9.32;;;17.10;99.90;;;;;;5050233;29;20041;-80
2023/10/04 06:38:14;;;;;;;22.95;10.30;;;17.10;99.90;;;;;;5065326;29;20049;-83
2023/10/04 06:40:44;;;;;;;17.60;9.57;;;17.20;99.90;;;;;;5065414;29;20044;-82
2023/10/04 06:43:15;;;;;;;19.42;9.95;;;17.30;99.90;;;;;;5065223;29;20047;-75
2023/10/04 06:45:46;;;;;;;18.05;10.45;;;17.60;99.90;;;;;;5065979;29;20047;-80
2023/10/04 06:48:17;;;;;;;16.77;9.55;;;17.70;99.90;;;;;;5065562;29;20028;-77
2023/10/04 06:50:49;;;;;;;20.40;10.85;;;17.80;99.90;;;;;;5071329;29;20062;-77
2023/10/04 06:53:22;;;;;;;18.17;10.93;;;18.00;99.90;;;;;;5084762;29;20024;-80
2023/10/04 06:55:54;;;;;;;13.27;9.73;;;18.00;99.90;;;;;;5084487;29;20038;-77
2023/10/04 06:58:25;;;;;;;15.63;9.63;;;18.10;99.90;;;;;;5086564;29;20028;-80
2023/10/04 07:00:56;;;;;;;14.73;10.55;;;18.30;99.90;;;;;;5086442;29;20028;-81
2023/10/04 07:03:29;;;;;;;15.75;10.98;;;18.50;99.90;;;;;;5085808;29;20020;-79
2023/10/04 07:06:00;;;;;;;17.15;10.80;;;18.50;99.90;;;;;;5085217;29;20073;-81
2023/10/04 07:08:35;;;;;;;14.82;10.30;;;18.80;99.90;;;;;;5084624;29;20051;-81
2023/10/04 07:11:06;;;;;;;18.70;11.75;;;18.90;99.90;;;;;;5085955;29;20063;-80
2023/10/04 07:13:39;;;;;;;16.15;10.40;;;18.90;99.90;;;;;;5084533;29;20069;-81
2023/10/04 07:16:11;;;;;;;18.75;10.70;;;19.10;99.90;;;;;;5085040;29;20393;-81
2023/10/04 07:18:42;;;;;;;19.15;10.32;;;19.10;99.90;;;;;;5086760;29;20556;-81
2023/10/04 07:21:15;;;;;;;16.30;10.60;;;19.20;99.90;;;;;;5086131;29;20068;-81
2023/10/04 07:23:46;;;;;;;19.02;11.35;;;19.20;99.90;;;;;;5085560;29;20059;-78
2023/10/04 07:26:16;;;;;;;16.63;11.23;;;19.10;99.90;;;;;;5086516;29;20496;-81
2023/10/04 07:28:47;;;;;;;19.08;12.25;;;19.20;99.90;;;;;;5086205;29;20028;-76
2023/10/04 07:31:18;;;;;;;20.85;12.25;;;19.40;99.90;;;;;;5083482;29;20043;-81
2023/10/04 07:33:50;;;;;;;14.00;10.43;;;19.50;99.90;;;;;;5085988;29;20029;-75
2023/10/04 07:36:21;;;;;;;19.13;11.45;;;19.40;99.90;;;;;;5085248;29;20032;-81
2023/10/04 07:38:52;;;;;;;22.38;11.63;;;19.60;99.90;;;;;;5085560;29;20535;-82
2023/10/04 07:41:23;;;;;;;18.40;12.57;;;19.60;99.90;;;;;;5081517;29;20040;-81
2023/10/04 07:43:53;;;;;;;19.10;12.60;;;19.60;99.90;;;;;;5080677;29;20119;-82
2023/10/04 07:46:25;;;;;;;21.05;11.93;;;19.60;99.90;;;;;;5084547;29;20028;-79
2023/10/04 07:48:56;;;;;;;19.08;11.95;;;19.90;99.90;;;;;;5081854;29;20080;-76
2023/10/04 07:51:28;;;;;;;20.52;10.88;;;19.90;99.90;;;;;;5069675;29;20041;-80
2023/10/04 07:53:58;;;;;;;15.85;11.30;;;20.20;99.90;;;;;;5084421;29;20095;-76
2023/10/04 07:56:30;;;;;;;16.90;11.43;;;20.30;99.90;;;;;;5085438;29;20075;-82
2023/10/04 07:59:01;;;;;;;15.82;11.10;;;20.50;99.90;;;;;;5086131;29;20157;-78
2023/10/04 08:01:33;;;;;;;17.70;11.63;;;20.70;99.90;;;;;;5084584;29;20028;-78
2023/10/04 08:04:04;;;;;;;19.48;12.15;;;20.70;99.90;;;;;;5085454;29;20163;-82
2023/10/04 08:06:35;;;;;;;18.23;12.07;;;20.90;99.90;;;;;;5084004;29;20028;-82
2023/10/04 08:09:06;;;;;;;16.98;10.75;;;21.10;99.90;;;;;;5084702;29;20094;-82
2023/10/04 08:11:37;;;;;;;16.58;11.52;;;21.10;99.90;;;;;;5084540;29;20043;-82
2023/10/04 08:14:08;;;;;;;21.17;11.88;;;21.10;99.90;;;;;;5084374;29;20035;-82
2023/10/04 08:16:39;;;;;;;21.95;11.63;;;21.10;99.90;;;;;;5082514;29;20035;-78
2023/10/04 08:19:09;;;;;;;18.88;11.10;;;19.50;99.90;;;;;;5086001;29;20436;-82
2023/10/04 08:21:41;;;;;;;19.83;11.25;;;21.40;99.90;;;;;;5084217;29;20075;-80
2023/10/04 08:24:12;;;;;;;24.15;11.23;;;;;;;;;;5083532;29;20040;-81
2023/10/04 08:26:43;;;;;;;17.95;10.90;;;21.90;99.90;;;;;;5083057;29;20028;-74
2023/10/04 08:29:14;;;;;;;16.05;11.02;;;;;;;;;;5085133;29;20024;-81
2023/10/04 08:31:45;;;;;;;16.60;11.18;;;21.90;99.90;;;;;;5085133;29;20051;-76
2023/10/04 08:34:18;;;;;;;20.20;11.50;;;21.80;99.90;;;;;;5084492;29;20036;-77
2023/10/04 08:39:29;;;;;;;16.25;10.80;;;21.80;99.90;;;;;;5096755;29;20058;-77
2023/10/04 08:42:01;;;;;;;19.67;10.98;;;21.70;99.90;;;;;;5098092;29;20087;-81
2023/10/04 08:44:33;;;;;;;17.02;11.15;;;21.60;99.90;;;;;;5085063;29;20485;-79
2023/10/04 08:47:08;;;;;;;16.02;11.15;;;21.60;99.90;;;;;;5085344;29;20032;-83
2023/10/04 08:50:09;;;;;;;18.73;11.90;;;21.60;99.90;;;;;;5085199;29;20115;-84
2023/10/04 08:52:42;;;;;;;17.13;11.48;;;21.80;99.90;;;;;;5083661;29;20123;-81
2023/10/04 08:55:17;;;;;;;18.60;12.10;;;22.30;99.90;;;;;;5084605;29;20028;-83
2023/10/04 08:57:50;;;;;;;17.83;12.30;;;22.10;99.90;;;;;;5085306;29;20118;-83
2023/10/04 09:00:28;;;;;;;19.77;13.40;;;;;;;;;;5089141;29;20361;-81
2023/10/04 09:03:00;;;;;;;22.75;12.80;;;22.10;99.90;;;;;;5084910;29;20021;-79
2023/10/04 09:05:36;;;;;;;15.73;11.57;;;22.60;99.90;;;;;;5084754;29;20032;-83
2023/10/04 09:08:07;;;;;;;18.60;11.50;;;22.30;99.90;;;;;;5080339;29;20032;-84
2023/10/04 09:10:39;;;;;;;16.08;11.18;;;22.40;99.90;;;;;;5084477;29;20047;-83
2023/10/04 09:13:10;;;;;;;17.88;11.07;;;22.70;99.90;;;;;;5084998;29;20115;-82
2023/10/04 09:15:42;;;;;;;19.50;10.65;;;;;;;;;;5093172;29;20042;-83
2023/10/04 09:18:25;;;;;;;17.38;10.98;;;22.70;99.90;;;;;;5092563;29;20548;-84
2023/10/04 09:20:55;;;;;;;17.45;10.38;;;22.90;99.90;;;;;;5085020;29;20027;-78
2023/10/04 09:23:28;;;;;;;19.10;11.05;;;23.10;99.90;;;;;;5084920;29;20492;-83
2023/10/04 09:25:59;;;;;;;14.70;9.70;;;23.40;99.90;;;;;;5088727;29;20020;-83
2023/10/04 09:28:38;;;;;;;16.60;10.40;;;;;;;;;;5088745;29;20030;-82
2023/10/04 09:31:13;;;;;;;14.50;10.30;;;23.10;99.90;;;;;;5068985;29;20052;-82
2023/10/04 09:33:46;;;;;;;19.02;10.80;;;23.00;99.90;;;;;;5069112;29;20025;-81
2023/10/04 09:36:43;;;;;;;18.27;10.40;;;23.10;99.90;;;;;;5069081;29;20032;-82
2023/10/04 09:39:16;;;;;;;18.83;10.60;;;23.20;99.90;;;;;;5068422;29;20394;-82
2023/10/04 09:41:48;;;;;;;15.65;9.43;;;23.40;99.90;;;;;;5073350;29;20035;-76
2023/10/04 09:44:25;;;;;;;20.75;10.30;;;23.50;99.90;;;;;;5080410;29;20031;-82
2023/10/04 09:47:02;;;;;;;20.65;11.68;;;23.80;99.90;;;;;;5084983;29;20032;-81
2023/10/04 09:49:36;;;;;;;17.63;10.95;;;23.70;99.90;;;;;;5079862;29;20595;-87
2023/10/04 09:52:08;;;;;;;18.58;10.68;;;23.70;99.90;;;;;;5075602;29;20041;-84
2023/10/04 09:54:39;;;;;;;18.55;12.07;;;23.90;99.90;;;;;;5074592;29;20039;-83
2023/10/04 09:57:12;;;;;;;16.33;11.98;;;23.90;99.90;;;;;;5074682;29;20024;-82
2023/10/04 09:59:43;;;;;;;18.33;11.18;;;24.00;99.90;;;;;;5073877;29;20030;-82
2023/10/04 10:02:17;;;;;;;17.75;11.55;;;23.90;99.90;;;;;;5074819;29;20028;-75
2023/10/04 10:04:49;;;;;;;18.45;12.57;;;24.10;99.90;;;;;;5072986;29;20024;-80
2023/10/04 10:07:23;;;;;;;18.25;12.57;;;24.20;99.90;;;;;;5079241;29;20404;-75
2023/10/04 10:10:04;;;;;;;19.45;14.10;;;24.50;99.90;;;;;;5078683;29;20040;-84
2023/10/04 10:12:35;;;;;;;20.52;15.30;;;24.30;99.90;;;;;;5086457;29;20040;-84
2023/10/04 10:15:07;;;;;;;22.27;14.52;;;24.30;99.90;;;;;;5075199;29;20033;-76
2023/10/04 10:17:40;;;;;;;21.48;14.32;;;;;;;;;;5066713;29;20032;-81
2023/10/04 10:20:12;;;;;;;19.08;14.13;;;24.70;99.90;;;;;;5068363;29;20035;-82
2023/10/04 10:22:58;;;;;;;20.17;16.70;;;24.70;99.90;;;;;;5087530;29;20072;-81
2023/10/04 10:25:32;;;;;;;19.63;15.38;;;24.80;99.90;;;;;;5087466;29;20020;-76
2023/10/04 10:28:04;;;;;;;16.05;12.10;;;24.80;99.90;;;;;;5087492;29;20056;-80
2023/10/04 10:30:36;;;;;;;15.63;11.23;;;24.50;99.90;;;;;;5086143;29;20485;-82
2023/10/04 10:33:07;;;;;;;16.13;10.77;;;24.90;99.90;;;;;;5087557;29;20135;-76
2023/10/04 10:35:53;;;;;;;13.98;10.70;;;25.00;99.90;;;;;;5086211;29;20111;-81
2023/10/04 10:38:43;;;;;;;16.05;10.05;;;25.00;99.90;;;;;;5086943;29;20127;-77
2023/10/04 10:41:32;;;;;;;16.08;10.13;;;25.10;99.90;;;;;;5087121;29;20475;-82
2023/10/04 10:44:23;;;;;;;17.87;10.90;;;25.10;99.90;;;;;;5086480;29;20114;-81
2023/10/04 10:46:58;;;;;;;15.70;10.20;;;25.00;99.90;;;;;;5086758;29;20387;-82
2023/10/04 10:49:44;;;;;;;18.75;10.45;;;25.10;99.90;;;;;;5085848;29;20024;-82
2023/10/04 10:52:29;;;;;;;18.27;11.52;;;25.40;99.90;;;;;;5084705;29;20477;-81
2023/10/04 10:55:07;;;;;;;15.88;10.90;;;25.20;99.90;;;;;;5066354;29;20036;-82
2023/10/04 10:57:38;;;;;;;17.75;11.77;;;25.30;99.90;;;;;;5069745;29;20027;-80
2023/10/04 11:00:18;;;;;;;18.55;11.90;;;25.20;99.90;;;;;;5100228;29;20027;-81
2023/10/04 11:02:53;;;;;;;17.77;11.57;;;25.30;99.90;;;;;;5088589;29;20023;-75
2023/10/04 11:05:25;;;;;;;17.27;10.90;;;25.50;99.90;;;;;;5099380;29;20040;-89
2023/10/04 11:07:57;;;;;;;16.58;11.18;;;25.50;99.90;;;;;;5100829;29;20455;-77
2023/10/04 11:10:29;;;;;;;15.60;11.27;;;25.60;99.90;;;;;;5092637;29;20489;-87
2023/10/04 11:13:08;;;;;;;18.02;11.18;;;25.10;99.90;;;;;;5098731;29;20114;-86
2023/10/04 11:15:41;;;;;;;16.80;11.25;;;25.30;99.90;;;;;;5102978;29;20024;-77
2023/10/04 11:18:14;;;;;;;18.25;11.57;;;25.30;99.90;;;;;;5086168;29;20128;-88
2023/10/04 11:20:45;;;;;;;14.95;10.05;;;25.20;99.90;;;;;;5084360;29;20040;-87
2023/10/04 11:23:16;;;;;;;16.05;10.98;;;25.50;99.90;;;;;;5085043;29;20384;-86
2023/10/04 11:25:47;;;;;;;16.27;10.27;;;25.50;99.90;;;;;;5086271;29;20024;-89
2023/10/04 11:28:18;;;;;;;18.90;11.23;;;25.60;99.90;;;;;;5084897;29;20083;-88
2023/10/04 11:30:49;;;;;;;18.00;12.25;;;25.50;99.90;;;;;;5086209;29;20392;-89
2023/10/04 11:33:20;;;;;;;16.38;11.65;;;25.60;99.90;;;;;;5085143;29;20114;-85
2023/10/04 11:35:51;;;;;;;16.50;11.25;;;25.50;99.90;;;;;;5085016;29;20361;-87
2023/10/04 11:38:27;;;;;;;17.38;11.30;;;25.70;99.90;;;;;;5085709;29;20127;-87
2023/10/04 11:40:58;;;;;;;16.98;11.05;;;25.80;99.90;;;;;;5085706;29;20024;-89
2023/10/04 11:43:29;;;;;;;16.13;11.20;;;25.40;99.90;;;;;;5085070;29;20024;-79
2023/10/04 11:46:00;;;;;;;19.17;11.38;;;25.20;99.90;;;;;;5084799;29;20038;-87
2023/10/04 11:48:31;;;;;;;17.02;11.63;;;25.40;99.90;;;;;;5084443;29;20040;-82
2023/10/04 11:51:04;;;;;;;16.92;10.82;;;25.50;99.90;;;;;;5084664;29;20499;-88
2023/10/04 11:53:42;;;;;;;18.45;10.85;;;25.50;99.90;;;;;;5083427;29;20031;-85
2023/10/04 11:56:13;;;;;;;21.27;11.85;;;25.50;99.90;;;;;;5084661;29;20020;-90
2023/10/04 11:58:49;;;;;;;17.20;11.00;;;25.60;99.90;;;;;;5085613;29;20036;-83
2023/10/04 12:01:23;;;;;;;19.65;11.38;;;25.60;99.90;;;;;;5084811;29;20385;-88
2023/10/04 12:03:54;;;;;;;17.38;10.70;;;25.80;99.90;;;;;;5086020;29;20032;-74
2023/10/04 12:06:30;;;;;;;16.58;11.20;;;25.60;99.90;;;;;;5084509;29;20500;-81
2023/10/04 12:09:05;;;;;;;17.33;11.20;;;25.10;99.90;;;;;;5086032;29;20036;-86
2023/10/04 12:11:38;;;;;;;16.65;11.82;;;25.40;99.90;;;;;;5085982;29;20037;-87
2023/10/04 12:14:09;;;;;;;17.00;11.85;;;25.50;99.90;;;;;;5084579;29;20028;-90
2023/10/04 12:16:42;;;;;;;16.08;11.15;;;25.70;99.90;;;;;;5085741;29;20090;-90
2023/10/04 12:19:14;;;;;;;18.45;10.82;;;25.90;99.90;;;;;;5085730;29;20031;-88
2023/10/04 12:21:45;;;;;;;19.45;11.50;;;25.70;99.90;;;;;;5085417;29;20072;-89
2023/10/04 12:24:15;;;;;;;17.92;11.40;;;25.00;99.90;;;;;;5085753;29;20031;-91
2023/10/04 12:26:46;;;;;;;17.10;11.93;;;24.90;99.90;;;;;;5085457;29;20416;-87
2023/10/04 12:29:17;;;;;;;17.77;12.27;;;25.30;99.90;;;;;;5085202;29;20032;-79
2023/10/04 12:31:50;;;;;;;17.33;11.77;;;25.30;99.90;;;;;;5085275;29;20113;-91
2023/10/04 12:34:23;;;;;;;17.42;12.07;;;25.40;99.90;;;;;;5085356;29;20028;-85
2023/10/04 12:36:55;;;;;;;15.20;11.02;;;25.30;99.90;;;;;;5084237;29;20131;-88
2023/10/04 12:39:27;;;;;;;18.13;11.85;;;25.50;99.90;;;;;;5083096;29;20060;-87
2023/10/04 12:41:59;;;;;;;17.80;11.15;;;25.50;99.90;;;;;;5084183;29;20389;-87
2023/10/04 12:44:31;;;;;;;16.42;10.90;;;25.40;99.90;;;;;;5084201;29;20043;-89
2023/10/04 12:47:02;;;;;;;17.05;10.23;;;25.40;99.90;;;;;;5084268;29;20484;-76
2023/10/04 12:49:33;;;;;;;17.35;10.95;;;25.60;99.90;;;;;;5083834;29;20564;-89
2023/10/04 12:52:04;;;;;;;18.33;11.52;;;25.20;99.90;;;;;;5083974;29;20040;-88
2023/10/04 12:54:36;;;;;;;16.63;10.63;;;25.30;99.90;;;;;;5084493;29;20028;-90
2023/10/04 12:57:07;;;;;;;15.88;10.65;;;25.50;99.90;;;;;;5085139;29;20115;-89
2023/10/04 12:59:37;;;;;;;16.42;10.38;;;25.60;99.90;;;;;;5088234;29;20028;-89
2023/10/04 13:02:08;;;;;;;19.38;10.38;;;25.40;99.90;;;;;;5089470;29;20032;-88
2023/10/04 13:04:39;;;;;;;15.38;10.60;;;25.40;99.90;;;;;;5089325;29;20417;-89
2023/10/04 13:07:10;;;;;;;19.55;10.10;;;25.60;99.90;;;;;;5088940;29;20115;-91